sensor_id;sensor_type;location;lat;lon;timestamp;P1;durP1;ratioP1;P2;durP2;ratioP2
86039;SDS011;76638;53.338;-6.250;2024-03-08T00:01:15;44.83;;;18.60;;
86039;SDS011;76638;53.338;-6.250;2024-03-08T00:03:42;38.58;;;18.30;;
86039;SDS011;76638;53.338;-6.250;2024-03-08T00:06:08;38.17;;;17.63;;
86039;SDS011;76638;53.338;-6.250;2024-03-08T00:08:33;38.05;;;19.38;;
86039;SDS011;76638;53.338;-6.250;2024-03-08T00:10:59;34.50;;;16.77;;
86039;SDS011;76638;53.338;-6.250;2024-03-08T00:13:25;36.72;;;16.45;;
86039;SDS011;76638;53.338;-6.250;2024-03-08T00:15:51;35.50;;;17.73;;
86039;SDS011;76638;53.338;-6.250;2024-03-08T00:18:17;37.05;;;17.17;;
86039;SDS011;76638;53.338;-6.250;2024-03-08T00:20:42;32.08;;;14.75;;
86039;SDS011;76638;53.338;-6.250;2024-03-08T00:23:10;31.85;;;16.25;;
86039;SDS011;76638;53.338;-6.250;2024-03-08T00:25:36;27.90;;;13.35;;
86039;SDS011;76638;53.338;-6.250;2024-03-08T00:28:02;30.27;;;16.17;;
86039;SDS011;76638;53.338;-6.250;2024-03-08T00:30:30;35.17;;;15.98;;
86039;SDS011;76638;53.338;-6.250;2024-03-08T00:32:56;35.20;;;16.23;;
86039;SDS011;76638;53.338;-6.250;2024-03-08T00:35:22;31.92;;;15.55;;
86039;SDS011;76638;53.338;-6.250;2024-03-08T00:37:48;30.27;;;14.38;;
86039;SDS011;76638;53.338;-6.250;2024-03-08T00:40:14;30.25;;;15.00;;
86039;SDS011;76638;53.338;-6.250;2024-03-08T00:42:40;37.35;;;16.88;;
86039;SDS011;76638;53.338;-6.250;2024-03-08T00:45:06;34.40;;;15.85;;
86039;SDS011;76638;53.338;-6.250;2024-03-08T00:47:33;33.53;;;16.63;;
86039;SDS011;76638;53.338;-6.250;2024-03-08T00:49:59;30.02;;;13.48;;
86039;SDS011;76638;53.338;-6.250;2024-03-08T00:52:25;28.65;;;15.10;;
86039;SDS011;76638;53.338;-6.250;2024-03-08T00:54:50;32.88;;;16.17;;
86039;SDS011;76638;53.338;-6.250;2024-03-08T00:57:16;36.38;;;15.75;;
86039;SDS011;76638;53.338;-6.250;2024-03-08T00:59:42;33.50;;;17.08;;
86039;SDS011;76638;53.338;-6.250;2024-03-08T01:02:09;38.80;;;16.38;;
86039;SDS011;76638;53.338;-6.250;2024-03-08T01:04:36;33.20;;;15.55;;
86039;SDS011;76638;53.338;-6.250;2024-03-08T01:07:02;31.42;;;15.93;;
86039;SDS011;76638;53.338;-6.250;2024-03-08T01:09:28;34.75;;;16.80;;
86039;SDS011;76638;53.338;-6.250;2024-03-08T01:11:54;31.98;;;14.35;;
86039;SDS011;76638;53.338;-6.250;2024-03-08T01:14:21;27.80;;;13.38;;
86039;SDS011;76638;53.338;-6.250;2024-03-08T01:16:51;30.08;;;14.40;;
86039;SDS011;76638;53.338;-6.250;2024-03-08T01:19:17;33.50;;;16.33;;
86039;SDS011;76638;53.338;-6.250;2024-03-08T01:21:43;34.60;;;15.43;;
86039;SDS011;76638;53.338;-6.250;2024-03-08T01:24:09;34.13;;;16.45;;
86039;SDS011;76638;53.338;-6.250;2024-03-08T01:26:34;26.33;;;13.90;;
86039;SDS011;76638;53.338;-6.250;2024-03-08T01:29:01;28.63;;;14.93;;
86039;SDS011;76638;53.338;-6.250;2024-03-08T01:31:29;28.20;;;13.95;;
86039;SDS011;76638;53.338;-6.250;2024-03-08T01:33:55;26.98;;;13.88;;
86039;SDS011;76638;53.338;-6.250;2024-03-08T01:36:22;30.20;;;15.13;;
86039;SDS011;76638;53.338;-6.250;2024-03-08T01:38:48;26.83;;;13.05;;
86039;SDS011;76638;53.338;-6.250;2024-03-08T01:41:14;24.88;;;14.07;;
86039;SDS011;76638;53.338;-6.250;2024-03-08T01:43:43;31.52;;;14.75;;
86039;SDS011;76638;53.338;-6.250;2024-03-08T01:46:10;30.45;;;14.65;;
86039;SDS011;76638;53.338;-6.250;2024-03-08T01:48:38;24.85;;;13.50;;
86039;SDS011;76638;53.338;-6.250;2024-03-08T01:51:06;30.00;;;14.88;;
86039;SDS011;76638;53.338;-6.250;2024-03-08T01:53:32;29.45;;;14.93;;
86039;SDS011;76638;53.338;-6.250;2024-03-08T01:55:58;25.13;;;11.93;;
86039;SDS011;76638;53.338;-6.250;2024-03-08T01:58:26;37.25;;;16.83;;
86039;SDS011;76638;53.338;-6.250;2024-03-08T02:00:53;30.38;;;15.60;;
86039;SDS011;76638;53.338;-6.250;2024-03-08T02:03:20;33.88;;;15.40;;
86039;SDS011;76638;53.338;-6.250;2024-03-08T02:05:46;29.85;;;14.10;;
86039;SDS011;76638;53.338;-6.250;2024-03-08T02:08:12;34.15;;;16.35;;
86039;SDS011;76638;53.338;-6.250;2024-03-08T02:10:48;26.23;;;12.80;;
86039;SDS011;76638;53.338;-6.250;2024-03-08T02:13:15;32.45;;;16.05;;
86039;SDS011;76638;53.338;-6.250;2024-03-08T02:15:57;29.73;;;15.25;;
86039;SDS011;76638;53.338;-6.250;2024-03-08T02:18:26;28.90;;;14.40;;
86039;SDS011;76638;53.338;-6.250;2024-03-08T02:20:54;29.33;;;14.70;;
86039;SDS011;76638;53.338;-6.250;2024-03-08T02:23:29;31.30;;;14.93;;
86039;SDS011;76638;53.338;-6.250;2024-03-08T02:25:55;24.45;;;13.35;;
86039;SDS011;76638;53.338;-6.250;2024-03-08T02:28:22;26.85;;;13.75;;
86039;SDS011;76638;53.338;-6.250;2024-03-08T02:30:49;24.73;;;13.05;;
86039;SDS011;76638;53.338;-6.250;2024-03-08T02:33:16;26.67;;;12.80;;
86039;SDS011;76638;53.338;-6.250;2024-03-08T02:35:43;30.83;;;13.68;;
86039;SDS011;76638;53.338;-6.250;2024-03-08T02:38:12;24.33;;;13.30;;
86039;SDS011;76638;53.338;-6.250;2024-03-08T02:40:42;23.92;;;12.93;;
86039;SDS011;76638;53.338;-6.250;2024-03-08T02:43:11;25.33;;;14.02;;
86039;SDS011;76638;53.338;-6.250;2024-03-08T02:45:37;24.35;;;12.85;;
86039;SDS011;76638;53.338;-6.250;2024-03-08T02:48:04;27.80;;;15.00;;
86039;SDS011;76638;53.338;-6.250;2024-03-08T02:50:32;26.88;;;13.25;;
86039;SDS011;76638;53.338;-6.250;2024-03-08T02:53:03;24.10;;;12.15;;
86039;SDS011;76638;53.338;-6.250;2024-03-08T02:55:29;26.67;;;10.65;;
86039;SDS011;76638;53.338;-6.250;2024-03-08T02:57:55;25.92;;;13.77;;
86039;SDS011;76638;53.338;-6.250;2024-03-08T03:00:21;33.40;;;15.35;;
86039;SDS011;76638;53.338;-6.250;2024-03-08T03:02:50;22.63;;;12.38;;
86039;SDS011;76638;53.338;-6.250;2024-03-08T03:05:22;22.58;;;12.65;;
86039;SDS011;76638;53.338;-6.250;2024-03-08T03:07:48;22.92;;;12.75;;
86039;SDS011;76638;53.338;-6.250;2024-03-08T03:10:16;25.20;;;13.18;;
86039;SDS011;76638;53.338;-6.250;2024-03-08T03:12:42;20.48;;;11.90;;
86039;SDS011;76638;53.338;-6.250;2024-03-08T03:15:08;25.42;;;13.77;;
86039;SDS011;76638;53.338;-6.250;2024-03-08T03:17:34;24.33;;;12.88;;
86039;SDS011;76638;53.338;-6.250;2024-03-08T03:20:00;26.77;;;13.95;;
86039;SDS011;76638;53.338;-6.250;2024-03-08T03:22:30;21.95;;;12.55;;
86039;SDS011;76638;53.338;-6.250;2024-03-08T03:24:56;24.17;;;13.73;;
86039;SDS011;76638;53.338;-6.250;2024-03-08T03:27:23;26.48;;;11.73;;
86039;SDS011;76638;53.338;-6.250;2024-03-08T03:29:50;28.67;;;14.25;;
86039;SDS011;76638;53.338;-6.250;2024-03-08T03:32:17;26.52;;;13.30;;
86039;SDS011;76638;53.338;-6.250;2024-03-08T03:34:44;24.17;;;12.18;;
86039;SDS011;76638;53.338;-6.250;2024-03-08T03:37:10;18.65;;;10.52;;
86039;SDS011;76638;53.338;-6.250;2024-03-08T03:39:39;25.92;;;12.38;;
86039;SDS011;76638;53.338;-6.250;2024-03-08T03:42:17;16.42;;;8.45;;
86039;SDS011;76638;53.338;-6.250;2024-03-08T03:44:45;26.83;;;12.85;;
86039;SDS011;76638;53.338;-6.250;2024-03-08T03:47:12;27.23;;;13.15;;
86039;SDS011;76638;53.338;-6.250;2024-03-08T03:49:38;22.45;;;12.18;;
86039;SDS011;76638;53.338;-6.250;2024-03-08T03:52:04;19.92;;;11.40;;
86039;SDS011;76638;53.338;-6.250;2024-03-08T03:54:31;20.77;;;10.48;;
86039;SDS011;76638;53.338;-6.250;2024-03-08T03:56:58;23.63;;;12.10;;
86039;SDS011;76638;53.338;-6.250;2024-03-08T03:59:24;22.67;;;11.00;;
86039;SDS011;76638;53.338;-6.250;2024-03-08T04:01:50;22.65;;;11.43;;
86039;SDS011;76638;53.338;-6.250;2024-03-08T04:04:15;23.02;;;11.70;;
86039;SDS011;76638;53.338;-6.250;2024-03-08T04:06:41;22.15;;;10.52;;
86039;SDS011;76638;53.338;-6.250;2024-03-08T04:09:07;27.38;;;13.05;;
86039;SDS011;76638;53.338;-6.250;2024-03-08T04:11:33;23.35;;;11.15;;
86039;SDS011;76638;53.338;-6.250;2024-03-08T04:13:59;22.00;;;11.57;;
86039;SDS011;76638;53.338;-6.250;2024-03-08T04:16:25;26.45;;;11.48;;
86039;SDS011;76638;53.338;-6.250;2024-03-08T04:18:51;18.40;;;11.15;;
86039;SDS011;76638;53.338;-6.250;2024-03-08T04:21:17;22.23;;;10.85;;
86039;SDS011;76638;53.338;-6.250;2024-03-08T04:23:45;18.67;;;8.93;;
86039;SDS011;76638;53.338;-6.250;2024-03-08T04:26:11;27.23;;;11.88;;
86039;SDS011;76638;53.338;-6.250;2024-03-08T04:28:37;17.00;;;9.02;;
86039;SDS011;76638;53.338;-6.250;2024-03-08T04:31:05;23.17;;;11.60;;
86039;SDS011;76638;53.338;-6.250;2024-03-08T04:33:32;23.08;;;10.20;;
86039;SDS011;76638;53.338;-6.250;2024-03-08T04:35:58;22.45;;;11.93;;
86039;SDS011;76638;53.338;-6.250;2024-03-08T04:38:23;20.17;;;9.23;;
86039;SDS011;76638;53.338;-6.250;2024-03-08T04:40:50;19.27;;;10.48;;
86039;SDS011;76638;53.338;-6.250;2024-03-08T04:43:16;23.60;;;11.00;;
86039;SDS011;76638;53.338;-6.250;2024-03-08T04:45:44;19.55;;;9.45;;
86039;SDS011;76638;53.338;-6.250;2024-03-08T04:48:10;17.20;;;9.57;;
86039;SDS011;76638;53.338;-6.250;2024-03-08T04:50:37;17.75;;;8.05;;
86039;SDS011;76638;53.338;-6.250;2024-03-08T04:53:03;22.75;;;12.25;;
86039;SDS011;76638;53.338;-6.250;2024-03-08T04:55:34;28.48;;;12.50;;
86039;SDS011;76638;53.338;-6.250;2024-03-08T04:58:00;23.55;;;11.48;;
86039;SDS011;76638;53.338;-6.250;2024-03-08T05:00:25;25.73;;;11.75;;
86039;SDS011;76638;53.338;-6.250;2024-03-08T05:02:51;21.27;;;10.95;;
86039;SDS011;76638;53.338;-6.250;2024-03-08T05:05:18;24.70;;;11.65;;
86039;SDS011;76638;53.338;-6.250;2024-03-08T05:07:44;22.52;;;10.70;;
86039;SDS011;76638;53.338;-6.250;2024-03-08T05:10:11;24.15;;;11.82;;
86039;SDS011;76638;53.338;-6.250;2024-03-08T05:12:37;25.58;;;10.20;;
86039;SDS011;76638;53.338;-6.250;2024-03-08T05:15:05;25.42;;;10.30;;
86039;SDS011;76638;53.338;-6.250;2024-03-08T05:17:32;23.30;;;12.82;;
86039;SDS011;76638;53.338;-6.250;2024-03-08T05:19:58;25.10;;;11.60;;
86039;SDS011;76638;53.338;-6.250;2024-03-08T05:22:24;18.30;;;9.60;;
86039;SDS011;76638;53.338;-6.250;2024-03-08T05:24:51;25.67;;;11.57;;
86039;SDS011;76638;53.338;-6.250;2024-03-08T05:27:17;22.90;;;11.13;;
86039;SDS011;76638;53.338;-6.250;2024-03-08T05:29:43;26.85;;;12.77;;
86039;SDS011;76638;53.338;-6.250;2024-03-08T05:32:08;23.77;;;12.02;;
86039;SDS011;76638;53.338;-6.250;2024-03-08T05:34:35;23.65;;;10.70;;
86039;SDS011;76638;53.338;-6.250;2024-03-08T05:37:01;25.35;;;13.65;;
86039;SDS011;76638;53.338;-6.250;2024-03-08T05:39:27;23.15;;;12.38;;
86039;SDS011;76638;53.338;-6.250;2024-03-08T05:41:53;24.08;;;11.88;;
86039;SDS011;76638;53.338;-6.250;2024-03-08T05:44:20;23.45;;;12.23;;
86039;SDS011;76638;53.338;-6.250;2024-03-08T05:46:46;21.42;;;10.70;;
86039;SDS011;76638;53.338;-6.250;2024-03-08T05:49:12;24.60;;;12.35;;
86039;SDS011;76638;53.338;-6.250;2024-03-08T05:51:39;18.95;;;9.43;;
86039;SDS011;76638;53.338;-6.250;2024-03-08T05:54:12;23.90;;;12.30;;
86039;SDS011;76638;53.338;-6.250;2024-03-08T05:56:38;19.38;;;10.35;;
86039;SDS011;76638;53.338;-6.250;2024-03-08T05:59:07;23.80;;;10.43;;
86039;SDS011;76638;53.338;-6.250;2024-03-08T06:01:33;16.35;;;9.13;;
86039;SDS011;76638;53.338;-6.250;2024-03-08T06:04:02;22.88;;;11.45;;
86039;SDS011;76638;53.338;-6.250;2024-03-08T06:06:28;29.35;;;13.65;;
86039;SDS011;76638;53.338;-6.250;2024-03-08T06:08:54;22.20;;;11.05;;
86039;SDS011;76638;53.338;-6.250;2024-03-08T06:11:22;20.85;;;11.20;;
86039;SDS011;76638;53.338;-6.250;2024-03-08T06:13:47;20.90;;;11.60;;
86039;SDS011;76638;53.338;-6.250;2024-03-08T06:16:14;22.02;;;12.10;;
86039;SDS011;76638;53.338;-6.250;2024-03-08T06:18:40;31.95;;;13.25;;
86039;SDS011;76638;53.338;-6.250;2024-03-08T06:21:06;25.40;;;11.57;;
86039;SDS011;76638;53.338;-6.250;2024-03-08T06:23:34;24.85;;;11.95;;
86039;SDS011;76638;53.338;-6.250;2024-03-08T06:26:06;20.67;;;10.00;;
86039;SDS011;76638;53.338;-6.250;2024-03-08T06:28:35;23.17;;;12.30;;
86039;SDS011;76638;53.338;-6.250;2024-03-08T06:31:01;22.38;;;10.38;;
86039;SDS011;76638;53.338;-6.250;2024-03-08T06:33:28;22.63;;;11.48;;
86039;SDS011;76638;53.338;-6.250;2024-03-08T06:35:54;23.15;;;11.82;;
86039;SDS011;76638;53.338;-6.250;2024-03-08T06:38:23;27.50;;;13.38;;
86039;SDS011;76638;53.338;-6.250;2024-03-08T06:40:49;23.17;;;10.85;;
86039;SDS011;76638;53.338;-6.250;2024-03-08T06:43:16;24.45;;;10.98;;
86039;SDS011;76638;53.338;-6.250;2024-03-08T06:45:44;21.23;;;12.65;;
86039;SDS011;76638;53.338;-6.250;2024-03-08T06:48:14;22.08;;;10.98;;
86039;SDS011;76638;53.338;-6.250;2024-03-08T06:50:43;27.85;;;11.95;;
86039;SDS011;76638;53.338;-6.250;2024-03-08T06:53:12;20.60;;;11.15;;
86039;SDS011;76638;53.338;-6.250;2024-03-08T06:55:39;24.02;;;12.52;;
86039;SDS011;76638;53.338;-6.250;2024-03-08T06:58:05;23.98;;;11.40;;
86039;SDS011;76638;53.338;-6.250;2024-03-08T07:00:32;21.77;;;10.93;;
86039;SDS011;76638;53.338;-6.250;2024-03-08T07:02:58;24.23;;;12.80;;
86039;SDS011;76638;53.338;-6.250;2024-03-08T07:05:26;27.20;;;12.00;;
86039;SDS011;76638;53.338;-6.250;2024-03-08T07:07:53;23.98;;;10.50;;
86039;SDS011;76638;53.338;-6.250;2024-03-08T07:10:23;19.80;;;11.40;;
86039;SDS011;76638;53.338;-6.250;2024-03-08T07:12:52;26.85;;;12.32;;
86039;SDS011;76638;53.338;-6.250;2024-03-08T07:15:21;24.10;;;12.10;;
86039;SDS011;76638;53.338;-6.250;2024-03-08T07:17:48;22.00;;;10.70;;
86039;SDS011;76638;53.338;-6.250;2024-03-08T07:20:14;22.17;;;11.23;;
86039;SDS011;76638;53.338;-6.250;2024-03-08T07:22:47;19.33;;;11.10;;
86039;SDS011;76638;53.338;-6.250;2024-03-08T07:25:16;21.55;;;10.75;;
86039;SDS011;76638;53.338;-6.250;2024-03-08T07:27:47;21.58;;;11.25;;
86039;SDS011;76638;53.338;-6.250;2024-03-08T07:30:13;20.92;;;11.25;;
86039;SDS011;76638;53.338;-6.250;2024-03-08T07:32:59;22.55;;;10.55;;
86039;SDS011;76638;53.338;-6.250;2024-03-08T07:35:25;23.48;;;10.70;;
86039;SDS011;76638;53.338;-6.250;2024-03-08T07:37:54;19.95;;;11.27;;
86039;SDS011;76638;53.338;-6.250;2024-03-08T07:40:23;23.77;;;11.07;;
86039;SDS011;76638;53.338;-6.250;2024-03-08T07:42:49;22.15;;;11.55;;
86039;SDS011;76638;53.338;-6.250;2024-03-08T07:45:15;22.75;;;10.82;;
86039;SDS011;76638;53.338;-6.250;2024-03-08T07:47:42;22.45;;;11.73;;
86039;SDS011;76638;53.338;-6.250;2024-03-08T07:50:08;20.42;;;11.23;;
86039;SDS011;76638;53.338;-6.250;2024-03-08T07:52:34;19.58;;;10.20;;
86039;SDS011;76638;53.338;-6.250;2024-03-08T07:55:02;18.40;;;9.85;;
86039;SDS011;76638;53.338;-6.250;2024-03-08T07:57:29;20.45;;;10.98;;
86039;SDS011;76638;53.338;-6.250;2024-03-08T07:59:55;25.58;;;10.95;;
86039;SDS011;76638;53.338;-6.250;2024-03-08T08:02:21;21.38;;;10.73;;
86039;SDS011;76638;53.338;-6.250;2024-03-08T08:04:47;18.63;;;9.35;;
86039;SDS011;76638;53.338;-6.250;2024-03-08T08:07:13;17.17;;;9.68;;
86039;SDS011;76638;53.338;-6.250;2024-03-08T08:09:40;20.00;;;9.75;;
86039;SDS011;76638;53.338;-6.250;2024-03-08T08:12:08;17.52;;;10.20;;
86039;SDS011;76638;53.338;-6.250;2024-03-08T08:14:37;13.27;;;6.93;;
86039;SDS011;76638;53.338;-6.250;2024-03-08T08:17:04;19.85;;;10.82;;
86039;SDS011;76638;53.338;-6.250;2024-03-08T08:19:30;20.65;;;10.30;;
86039;SDS011;76638;53.338;-6.250;2024-03-08T08:21:57;22.98;;;10.45;;
86039;SDS011;76638;53.338;-6.250;2024-03-08T08:24:23;24.88;;;10.90;;
86039;SDS011;76638;53.338;-6.250;2024-03-08T08:26:49;18.45;;;10.43;;
86039;SDS011;76638;53.338;-6.250;2024-03-08T08:29:16;16.85;;;9.73;;
86039;SDS011;76638;53.338;-6.250;2024-03-08T08:31:42;13.90;;;7.47;;
86039;SDS011;76638;53.338;-6.250;2024-03-08T08:34:10;17.20;;;10.38;;
86039;SDS011;76638;53.338;-6.250;2024-03-08T08:36:39;20.08;;;10.07;;
86039;SDS011;76638;53.338;-6.250;2024-03-08T08:39:05;17.88;;;9.13;;
86039;SDS011;76638;53.338;-6.250;2024-03-08T08:41:37;21.40;;;10.38;;
86039;SDS011;76638;53.338;-6.250;2024-03-08T08:44:03;19.83;;;9.80;;
86039;SDS011;76638;53.338;-6.250;2024-03-08T08:46:29;21.42;;;11.80;;
86039;SDS011;76638;53.338;-6.250;2024-03-08T08:48:55;20.17;;;11.35;;
86039;SDS011;76638;53.338;-6.250;2024-03-08T08:51:21;16.73;;;9.40;;
86039;SDS011;76638;53.338;-6.250;2024-03-08T08:53:48;20.50;;;10.25;;
86039;SDS011;76638;53.338;-6.250;2024-03-08T08:56:14;26.70;;;13.02;;
86039;SDS011;76638;53.338;-6.250;2024-03-08T08:58:44;28.92;;;13.60;;
86039;SDS011;76638;53.338;-6.250;2024-03-08T09:01:10;26.63;;;13.43;;
86039;SDS011;76638;53.338;-6.250;2024-03-08T09:03:37;24.23;;;12.60;;
86039;SDS011;76638;53.338;-6.250;2024-03-08T09:06:06;30.23;;;14.55;;
86039;SDS011;76638;53.338;-6.250;2024-03-08T09:08:35;25.70;;;13.27;;
86039;SDS011;76638;53.338;-6.250;2024-03-08T09:11:02;30.75;;;15.23;;
86039;SDS011;76638;53.338;-6.250;2024-03-08T09:13:28;25.98;;;13.45;;
86039;SDS011;76638;53.338;-6.250;2024-03-08T09:15:53;22.23;;;12.25;;
86039;SDS011;76638;53.338;-6.250;2024-03-08T09:18:20;25.33;;;13.05;;
86039;SDS011;76638;53.338;-6.250;2024-03-08T09:20:45;21.60;;;11.10;;
86039;SDS011;76638;53.338;-6.250;2024-03-08T09:23:12;25.10;;;13.02;;
86039;SDS011;76638;53.338;-6.250;2024-03-08T09:25:38;22.70;;;11.77;;
86039;SDS011;76638;53.338;-6.250;2024-03-08T09:28:04;24.08;;;13.93;;
86039;SDS011;76638;53.338;-6.250;2024-03-08T09:30:31;24.10;;;13.32;;
86039;SDS011;76638;53.338;-6.250;2024-03-08T09:32:57;27.55;;;13.93;;
86039;SDS011;76638;53.338;-6.250;2024-03-08T09:35:22;20.42;;;11.23;;
86039;SDS011;76638;53.338;-6.250;2024-03-08T09:37:49;23.05;;;13.05;;
86039;SDS011;76638;53.338;-6.250;2024-03-08T09:40:17;21.15;;;13.00;;
86039;SDS011;76638;53.338;-6.250;2024-03-08T09:42:48;23.55;;;13.15;;
86039;SDS011;76638;53.338;-6.250;2024-03-08T09:45:14;27.27;;;14.48;;
86039;SDS011;76638;53.338;-6.250;2024-03-08T09:47:43;26.25;;;14.20;;
86039;SDS011;76638;53.338;-6.250;2024-03-08T09:50:10;22.92;;;14.07;;
86039;SDS011;76638;53.338;-6.250;2024-03-08T09:52:47;22.48;;;13.52;;
86039;SDS011;76638;53.338;-6.250;2024-03-08T09:55:14;19.85;;;11.13;;
86039;SDS011;76638;53.338;-6.250;2024-03-08T09:57:43;26.45;;;16.20;;
86039;SDS011;76638;53.338;-6.250;2024-03-08T10:00:28;27.58;;;16.25;;
86039;SDS011;76638;53.338;-6.250;2024-03-08T10:02:53;28.40;;;15.30;;
86039;SDS011;76638;53.338;-6.250;2024-03-08T10:05:19;28.73;;;13.55;;
86039;SDS011;76638;53.338;-6.250;2024-03-08T10:07:47;24.98;;;13.75;;
86039;SDS011;76638;53.338;-6.250;2024-03-08T10:10:13;24.88;;;14.88;;
86039;SDS011;76638;53.338;-6.250;2024-03-08T10:12:39;24.58;;;14.18;;
86039;SDS011;76638;53.338;-6.250;2024-03-08T10:15:06;26.13;;;14.82;;
86039;SDS011;76638;53.338;-6.250;2024-03-08T10:17:35;25.65;;;14.45;;
86039;SDS011;76638;53.338;-6.250;2024-03-08T10:20:01;24.83;;;14.23;;
86039;SDS011;76638;53.338;-6.250;2024-03-08T10:22:27;27.52;;;14.20;;
86039;SDS011;76638;53.338;-6.250;2024-03-08T10:24:54;24.67;;;13.55;;
86039;SDS011;76638;53.338;-6.250;2024-03-08T10:27:20;27.67;;;15.30;;
86039;SDS011;76638;53.338;-6.250;2024-03-08T10:29:49;25.75;;;13.85;;
86039;SDS011;76638;53.338;-6.250;2024-03-08T10:32:17;25.08;;;13.55;;
86039;SDS011;76638;53.338;-6.250;2024-03-08T10:34:43;27.73;;;13.73;;
86039;SDS011;76638;53.338;-6.250;2024-03-08T10:37:12;23.33;;;12.43;;
86039;SDS011;76638;53.338;-6.250;2024-03-08T10:39:42;21.23;;;10.23;;
86039;SDS011;76638;53.338;-6.250;2024-03-08T10:42:15;27.50;;;15.02;;
86039;SDS011;76638;53.338;-6.250;2024-03-08T10:44:48;27.02;;;14.23;;
86039;SDS011;76638;53.338;-6.250;2024-03-08T10:47:25;22.73;;;12.05;;
86039;SDS011;76638;53.338;-6.250;2024-03-08T10:49:55;26.92;;;13.98;;
86039;SDS011;76638;53.338;-6.250;2024-03-08T10:52:29;30.00;;;14.25;;
86039;SDS011;76638;53.338;-6.250;2024-03-08T10:54:56;24.85;;;13.75;;
86039;SDS011;76638;53.338;-6.250;2024-03-08T10:57:22;28.02;;;14.70;;
86039;SDS011;76638;53.338;-6.250;2024-03-08T10:59:49;30.58;;;15.32;;
86039;SDS011;76638;53.338;-6.250;2024-03-08T11:02:16;22.25;;;12.43;;
86039;SDS011;76638;53.338;-6.250;2024-03-08T11:04:46;31.10;;;15.73;;
86039;SDS011;76638;53.338;-6.250;2024-03-08T11:07:16;28.77;;;16.27;;
86039;SDS011;76638;53.338;-6.250;2024-03-08T11:09:47;25.88;;;13.20;;
86039;SDS011;76638;53.338;-6.250;2024-03-08T11:12:27;27.80;;;14.63;;
86039;SDS011;76638;53.338;-6.250;2024-03-08T11:15:00;32.22;;;16.65;;
86039;SDS011;76638;53.338;-6.250;2024-03-08T11:20:04;28.77;;;15.70;;
86039;SDS011;76638;53.338;-6.250;2024-03-08T11:22:41;30.25;;;13.75;;
86039;SDS011;76638;53.338;-6.250;2024-03-08T11:25:36;25.10;;;13.65;;
86039;SDS011;76638;53.338;-6.250;2024-03-08T11:30:43;31.45;;;15.73;;
86039;SDS011;76638;53.338;-6.250;2024-03-08T11:33:12;24.15;;;13.40;;
86039;SDS011;76638;53.338;-6.250;2024-03-08T11:35:39;24.00;;;14.27;;
86039;SDS011;76638;53.338;-6.250;2024-03-08T11:38:07;27.58;;;14.57;;
86039;SDS011;76638;53.338;-6.250;2024-03-08T11:40:34;29.80;;;14.93;;
86039;SDS011;76638;53.338;-6.250;2024-03-08T11:43:00;30.17;;;16.13;;
86039;SDS011;76638;53.338;-6.250;2024-03-08T11:45:29;27.40;;;15.18;;
86039;SDS011;76638;53.338;-6.250;2024-03-08T11:47:55;19.33;;;10.98;;
86039;SDS011;76638;53.338;-6.250;2024-03-08T11:50:21;31.52;;;15.68;;
86039;SDS011;76638;53.338;-6.250;2024-03-08T11:52:49;24.83;;;13.77;;
86039;SDS011;76638;53.338;-6.250;2024-03-08T11:55:15;27.42;;;14.40;;
86039;SDS011;76638;53.338;-6.250;2024-03-08T11:57:41;30.90;;;15.25;;
86039;SDS011;76638;53.338;-6.250;2024-03-08T12:00:14;23.50;;;13.00;;
86039;SDS011;76638;53.338;-6.250;2024-03-08T12:02:47;24.52;;;12.85;;
86039;SDS011;76638;53.338;-6.250;2024-03-08T12:05:16;24.63;;;12.80;;
86039;SDS011;76638;53.338;-6.250;2024-03-08T12:07:42;27.20;;;12.82;;
86039;SDS011;76638;53.338;-6.250;2024-03-08T12:10:15;29.85;;;15.23;;
86039;SDS011;76638;53.338;-6.250;2024-03-08T12:12:48;27.30;;;15.32;;
86039;SDS011;76638;53.338;-6.250;2024-03-08T12:15:17;32.53;;;13.63;;
86039;SDS011;76638;53.338;-6.250;2024-03-08T12:17:47;29.67;;;14.00;;
86039;SDS011;76638;53.338;-6.250;2024-03-08T12:20:18;27.73;;;13.18;;
86039;SDS011;76638;53.338;-6.250;2024-03-08T12:22:47;34.17;;;14.52;;
86039;SDS011;76638;53.338;-6.250;2024-03-08T12:25:14;25.35;;;12.68;;
86039;SDS011;76638;53.338;-6.250;2024-03-08T12:27:41;30.20;;;16.38;;
86039;SDS011;76638;53.338;-6.250;2024-03-08T12:30:22;27.83;;;14.40;;
86039;SDS011;76638;53.338;-6.250;2024-03-08T12:32:53;26.42;;;14.25;;
86039;SDS011;76638;53.338;-6.250;2024-03-08T12:35:22;25.70;;;14.75;;
86039;SDS011;76638;53.338;-6.250;2024-03-08T12:37:59;27.45;;;15.15;;
86039;SDS011;76638;53.338;-6.250;2024-03-08T12:40:25;30.88;;;15.20;;
86039;SDS011;76638;53.338;-6.250;2024-03-08T12:42:53;24.30;;;13.88;;
86039;SDS011;76638;53.338;-6.250;2024-03-08T12:45:18;28.55;;;15.98;;
86039;SDS011;76638;53.338;-6.250;2024-03-08T12:47:47;27.67;;;14.45;;
86039;SDS011;76638;53.338;-6.250;2024-03-08T12:50:13;24.15;;;14.93;;
86039;SDS011;76638;53.338;-6.250;2024-03-08T12:52:39;29.92;;;15.77;;
86039;SDS011;76638;53.338;-6.250;2024-03-08T12:55:05;23.38;;;11.63;;
86039;SDS011;76638;53.338;-6.250;2024-03-08T12:57:35;28.92;;;14.57;;
86039;SDS011;76638;53.338;-6.250;2024-03-08T13:02:29;29.15;;;14.70;;
86039;SDS011;76638;53.338;-6.250;2024-03-08T13:04:56;27.08;;;13.55;;
86039;SDS011;76638;53.338;-6.250;2024-03-08T13:07:26;31.15;;;15.45;;
86039;SDS011;76638;53.338;-6.250;2024-03-08T13:09:52;20.42;;;12.55;;
86039;SDS011;76638;53.338;-6.250;2024-03-08T13:12:20;28.85;;;15.73;;
86039;SDS011;76638;53.338;-6.250;2024-03-08T13:14:49;24.67;;;13.60;;
86039;SDS011;76638;53.338;-6.250;2024-03-08T13:17:15;22.48;;;13.18;;
86039;SDS011;76638;53.338;-6.250;2024-03-08T13:19:41;25.80;;;14.57;;
86039;SDS011;76638;53.338;-6.250;2024-03-08T13:22:08;25.55;;;13.60;;
86039;SDS011;76638;53.338;-6.250;2024-03-08T13:24:43;30.58;;;16.50;;
86039;SDS011;76638;53.338;-6.250;2024-03-08T13:27:10;30.70;;;15.68;;
86039;SDS011;76638;53.338;-6.250;2024-03-08T13:29:48;28.63;;;15.18;;
86039;SDS011;76638;53.338;-6.250;2024-03-08T13:32:14;27.83;;;15.25;;
86039;SDS011;76638;53.338;-6.250;2024-03-08T13:34:44;29.23;;;14.32;;
86039;SDS011;76638;53.338;-6.250;2024-03-08T13:37:12;27.25;;;15.57;;
86039;SDS011;76638;53.338;-6.250;2024-03-08T13:39:41;33.97;;;16.00;;
86039;SDS011;76638;53.338;-6.250;2024-03-08T13:42:09;21.20;;;11.77;;
86039;SDS011;76638;53.338;-6.250;2024-03-08T13:44:39;29.85;;;14.55;;
86039;SDS011;76638;53.338;-6.250;2024-03-08T13:47:05;26.15;;;13.40;;
86039;SDS011;76638;53.338;-6.250;2024-03-08T13:49:32;25.45;;;13.75;;
86039;SDS011;76638;53.338;-6.250;2024-03-08T13:51:58;19.88;;;11.60;;
86039;SDS011;76638;53.338;-6.250;2024-03-08T13:54:24;28.90;;;14.15;;
86039;SDS011;76638;53.338;-6.250;2024-03-08T13:56:52;22.83;;;13.18;;
86039;SDS011;76638;53.338;-6.250;2024-03-08T13:59:20;23.75;;;12.43;;
86039;SDS011;76638;53.338;-6.250;2024-03-08T14:01:49;29.10;;;13.48;;
86039;SDS011;76638;53.338;-6.250;2024-03-08T14:04:15;22.92;;;11.65;;
86039;SDS011;76638;53.338;-6.250;2024-03-08T14:06:44;25.70;;;14.02;;
86039;SDS011;76638;53.338;-6.250;2024-03-08T14:09:11;24.65;;;13.27;;
86039;SDS011;76638;53.338;-6.250;2024-03-08T14:11:42;23.85;;;12.60;;
86039;SDS011;76638;53.338;-6.250;2024-03-08T14:14:10;23.75;;;14.13;;
86039;SDS011;76638;53.338;-6.250;2024-03-08T14:16:38;22.40;;;13.02;;
86039;SDS011;76638;53.338;-6.250;2024-03-08T14:19:04;24.48;;;13.05;;